• Join FlightAware (Why Join?)
  • Login
  • US Flag 
07:41AM EST


 

Airport Tracker/Info


-or-


 

Live Flight TrackerFlight Track Log ✈ N678H ✈ 23-Apr-2013 ✈ M19 - KASG

Flight Track Log - Related Links

Times and Time Zones

All times are in EDT time to prevent confusion due to time zone crossing. See the N678H flight status page for this flight to view local times or setup timezone preferences in your user account.

Time Position Orientation Groundspeed Altitude Reporting Facility
EDT Latitude Longitude Course Direction KTS MPH feet Rate Location/Type
05:49PM 35.7303 -91.4797 292° West 185 213 4,600  Level Memphis Center
05:50PM 35.7403 -91.5208 287° West 156 180 5,200 600 Climbing Memphis Center
05:51PM 35.7483 -91.5617 284° West 137 158 5,900 600 Climbing Memphis Center
05:52PM 35.7542 -91.6003 281° West 125 144 6,500 600 Climbing Memphis Center
05:53PM 35.6686 -91.3892 292° West  Level FlightAware Approximate
05:53PM 35.7600 -91.6361 281° West 125 144 7,100  Level Memphis Center
05:54PM 35.7681 -91.6772 284° West 125 144 7,700 420 Climbing Memphis Center
05:55PM 35.7758 -91.7183 283° West 125 144 8,000 180 Climbing Memphis Center
05:56PM 35.7817 -91.7619 279° West 125 144 8,100  Climbing Memphis Center
05:57PM 35.7894 -91.8056 282° West 125 144 8,100  Level Memphis Center
05:58PM 35.7953 -91.8542 278° West 125 144 8,100  Level Memphis Center
05:59PM 35.8031 -91.9031 281° West 136 157 8,100 -60 Level Memphis Center
06:00PM 35.8128 -91.9492 285° West 142 163 8,000  Descending Memphis Center
06:01PM 35.8225 -91.9956 285° West 147 169 8,100  Climbing Memphis Center
06:02PM 35.8303 -92.0444 281° West 141 162 8,000  Descending Memphis Center
06:03PM 35.8442 -92.0908 290° West 146 168 8,100  Climbing Memphis Center
06:04PM 35.8500 -92.1369 279° West 146 168 8,000  Descending Memphis Center
06:05PM 35.8575 -92.1858 281° West 146 168 8,100  Climbing Memphis Center
06:06PM 35.8653 -92.2319 282° West 146 168 8,000  Descending Memphis Center
06:07PM 35.8728 -92.2783 281° West 146 168 8,100  Climbing Memphis Center
06:08PM 35.8803 -92.3297 280° West 146 168 8,000  Descending Memphis Center
06:09PM 35.8858 -92.3733 279° West 146 168 8,100  Climbing Memphis Center
06:10PM 35.8933 -92.4222 281° West 146 168 8,000  Descending Memphis Center
06:11PM 35.9011 -92.4686 282° West 146 168 8,100  Climbing Memphis Center
06:12PM 35.9086 -92.5175 281° West 146 168 8,100 -60 Level Memphis Center
06:13PM 35.9161 -92.5664 281° West 146 168 8,000  Descending Memphis Center
06:14PM 35.9278 -92.6153 286° West 146 168 8,100 60 Climbing Memphis Center
06:15PM 35.9372 -92.6644 283° West 146 168 8,200  Climbing Memphis Center
06:16PM 35.9467 -92.7183 282° West 146 168 8,100  Descending Memphis Center
06:17PM 35.9539 -92.7675 280° West 151 174 8,200  Climbing Memphis Center
06:18PM 35.9614 -92.8189 280° West 151 174 8,100  Descending Memphis Center
06:19PM 35.9667 -92.8678 278° West 151 174 8,200  Climbing Memphis Center
06:20PM 35.9761 -92.9167 283° West 151 174 8,200  Level Memphis Center
06:21PM 35.9875 -92.9658 286° West 151 174 8,200  Level Memphis Center
06:22PM 35.9989 -93.0150 286° West 151 174 8,200 -60 Level Memphis Center
06:23PM 36.0064 -93.0614 281° West 146 168 8,100 -60 Descending Memphis Center
06:24PM 36.0136 -93.1053 282° West 146 168 8,100  Level Memphis Center
06:25PM 36.0231 -93.1544 283° West 146 168 8,200  Climbing Memphis Center
06:26PM 36.0303 -93.2058 280° West 146 168 8,200 -60 Level Memphis Center
06:27PM 36.0375 -93.2575 280° West 146 168 8,100 -60 Descending Memphis Center
06:28PM 36.0467 -93.3067 283° West 146 168 8,100  Level Memphis Center
06:29PM 36.0436 -93.3528 265° West 146 168 8,100 -60 Level Memphis Center
06:30PM 36.0383 -93.3986 262° West 141 162 8,000 -360 Descending Memphis Center
06:31PM 36.0328 -93.4472 262° West 141 162 7,400 -720 Descending Memphis Center
06:32PM 36.0294 -93.5036 266° West 152 175 6,600 -900 Descending Memphis Center
06:33PM 36.0278 -93.5600 268° West 162 186 5,600 -900 Descending Memphis Center
06:34PM 36.0158 -93.6186 256° West 167 192 4,800 -780 Descending Memphis Center
06:35PM 36.0100 -93.6825 264° West 172 198 4,100 -420 Descending Memphis Center
06:36PM 36.0044 -93.7389 263° West 177 204 4,000 -120 Descending Memphis Center
06:43PM 36.0272 -93.7889 256° West  Level Estimated
06:50PM 36.1667 -94.1167 324° Northwest  Level FlightAware Approximate
06:51PM 36.1764 -94.1192 324° Northwest  Level Estimated
06:52PM 36.1764 -94.1192 324° Northwest  Level Estimated
06:53PM 36.1764 -94.1192 324° Northwest  Level Estimated
06:54PM 36.1764 -94.1192 324° Northwest  Level Estimated
06:55PM 36.1764 -94.1192 324° Northwest  Level Estimated